< < Back
Terminal Aerodrome Forecast


Current Version              Previous Versions:   1  2  3  4  5  6  7  8  9  

Terminal Aerodrome Forecast

844
FTUS44 KOHX 201100
TAFCSV
TAF
KCSV 201120Z 2012/2112 23002KT 5SM BR SCT020
      TEMPO 2012/2013 2SM BR BKN015
     FM201400 24006KT P6SM SCT020
     FM201800 25007KT P6SM VCTS SCT030CB=



Latest METAR

529
SAUS70 KWBC 201600 RRB
MTRCSV
METAR KCSV 201553Z AUTO 23008KT 10SM FEW014 SCT020 BKN024 28/23 A3009
RMK AO2 SLP165 T02780228


USA.gov is the U.S. government's official web portal to all federal, state and local government web resources and services.